Time;durP1;ratioP1;P1;durP2;ratioP2;P2;SDS_P1;SDS_P2;PMS_P1;PMS_P2;Temp;Humidity;BMP_temperature;BMP_pressure;BME280_temperature;BME280_humidity;BME280_pressure;Samples;Min_cycle;Max_cycle;Signal;HPM_P1;HPM_P2
2022/08/04 00:00:21;;;;;;;9.38;6.60;;;;;;;19.65;57.93;100416.03;5035305;28;20044;-73
2022/08/04 00:02:47;;;;;;;7.40;6.70;;;;;;;19.64;58.26;100421.06;5053325;28;20159;-74
2022/08/04 00:05:29;;;;;;;10.98;7.03;;;;;;;19.62;58.04;100420.03;5053048;28;20473;-74
2022/08/04 00:07:58;;;;;;;7.43;6.68;;;;;;;19.56;58.46;100423.03;5035253;28;20079;-73
2022/08/04 00:10:24;;;;;;;9.15;7.15;;;;;;;19.53;58.53;100430.72;5052840;28;20047;-74
2022/08/04 00:12:51;;;;;;;9.98;6.60;;;;;;;19.51;58.41;100426.81;5051665;28;20580;-73
2022/08/04 00:15:17;;;;;;;8.05;7.15;;;;;;;19.48;58.90;100422.13;5051827;28;20029;-74
2022/08/04 00:17:58;;;;;;;9.80;7.50;;;;;;;19.40;58.86;100418.31;5053005;28;20025;-74
2022/08/04 00:20:28;;;;;;;9.37;7.13;;;;;;;19.37;59.15;100416.50;5051638;28;20116;-73
2022/08/04 00:22:54;;;;;;;9.98;7.90;;;;;;;19.32;59.19;100423.94;5051722;28;20478;-75
2022/08/04 00:25:20;;;;;;;7.80;6.88;;;;;;;19.30;59.67;100422.97;5051649;28;20071;-73
2022/08/04 00:27:45;;;;;;;10.70;8.02;;;;;;;19.26;59.78;100425.41;5051649;28;20021;-74
2022/08/04 00:30:11;;;;;;;11.68;7.72;;;;;;;19.25;59.55;100423.81;5034943;28;20083;-76
2022/08/04 00:32:39;;;;;;;11.07;7.03;;;;;;;19.18;60.00;100416.53;5052975;28;20060;-74
2022/08/04 00:35:05;;;;;;;9.25;7.50;;;;;;;19.20;60.32;100421.81;5055691;28;20033;-74
2022/08/04 00:37:31;;;;;;;11.90;7.88;;;;;;;19.17;60.53;100425.78;5056910;28;20025;-74
2022/08/04 00:39:57;;;;;;;11.63;7.43;;;;;;;19.11;60.33;100417.16;5057196;28;20393;-74
2022/08/04 00:42:35;;;;;;;7.47;6.78;;;;;;;19.10;60.45;100422.19;5055953;28;20453;-74
2022/08/04 00:45:09;;;;;;;8.88;7.63;;;;;;;19.06;60.55;100421.72;5056851;28;20095;-74
2022/08/04 00:47:51;;;;;;;11.18;7.45;;;;;;;19.04;60.70;100423.59;5056775;28;20079;-75
2022/08/04 00:50:16;;;;;;;10.90;7.60;;;;;;;19.02;60.65;100427.03;5055757;28;20035;-74
2022/08/04 00:52:54;;;;;;;9.18;8.07;;;;;;;18.98;61.40;100420.78;5056624;28;20020;-74
2022/08/04 00:55:19;;;;;;;11.35;7.60;;;;;;;18.95;61.17;100418.19;5038695;28;20021;-73
2022/08/04 00:57:57;;;;;;;8.60;7.43;;;;;;;18.92;61.55;100425.09;5056586;28;20033;-74
2022/08/04 01:00:22;;;;;;;8.75;7.50;;;;;;;18.86;62.01;100422.28;5056364;28;20390;-74
2022/08/04 01:03:12;;;;;;;12.13;7.22;;;;;;;18.85;61.86;100422.81;5055225;28;20033;-75
2022/08/04 01:05:37;;;;;;;7.50;6.72;;;;;;;18.78;62.02;100424.22;5056390;28;20091;-73
2022/08/04 01:08:46;;;;;;;8.18;7.25;;;;;;;18.77;62.17;100428.44;5056535;28;20029;-73
2022/08/04 01:11:35;;;;;;;16.20;8.05;;;;;;;18.74;62.43;100431.66;5025709;28;20115;-74
2022/08/04 01:14:35;;;;;;;12.15;7.55;;;;;;;18.62;62.84;100417.31;5038352;28;20020;-74
2022/08/04 01:17:27;;;;;;;10.25;7.20;;;;;;;18.66;63.34;100423.59;5052136;28;20032;-75
2022/08/04 01:20:01;;;;;;;10.77;7.25;;;;;;;18.64;63.31;100434.16;5043894;28;20402;-75
2022/08/04 01:22:32;;;;;;;10.05;7.80;;;;;;;18.61;63.20;100436.03;5056101;28;20025;-73
2022/08/04 01:25:39;;;;;;;9.75;6.93;;;;;;;18.57;63.23;100435.53;5056045;28;20029;-73
2022/08/04 01:28:29;;;;;;;7.90;7.10;;;;;;;18.52;63.71;100435.66;5022508;28;20041;-73
2022/08/04 01:31:05;;;;;;;9.05;7.90;;;;;;;18.45;63.60;100437.03;5056039;28;20048;-74
2022/08/04 01:33:32;;;;;;;8.15;6.90;;;;;;;18.44;64.03;100431.78;5037789;28;20115;-74
2022/08/04 01:36:05;;;;;;;9.13;6.97;;;;;;;18.43;64.16;100431.00;5037965;28;20171;-73
2022/08/04 01:38:34;;;;;;;8.07;7.28;;;;;;;18.41;64.14;100430.78;5037720;28;20077;-73
2022/08/04 01:41:04;;;;;;;21.15;8.57;;;;;;;18.39;64.74;100436.31;5055826;28;20021;-74
2022/08/04 01:43:31;;;;;;;9.10;7.85;;;;;;;18.36;64.64;100428.72;5055173;28;20036;-73
2022/08/04 01:45:59;;;;;;;12.10;7.95;;;;;;;18.32;64.88;100430.38;5055423;28;20031;-73
2022/08/04 01:48:26;;;;;;;9.45;7.60;;;;;;;18.29;64.91;100426.41;5054507;28;20028;-73
2022/08/04 01:50:52;;;;;;;11.68;7.45;;;;;;;18.22;65.40;100427.81;5055541;28;20029;-74
2022/08/04 01:53:19;;;;;;;12.73;7.88;;;;;;;18.17;65.55;100431.56;5055927;28;20377;-74
2022/08/04 01:55:46;;;;;;;9.35;7.88;;;;;;;18.17;65.70;100433.66;5055749;28;20088;-73
2022/08/04 01:58:15;;;;;;;9.25;7.13;;;;;;;18.14;65.75;100429.75;5054193;28;20025;-73
2022/08/04 02:00:49;;;;;;;12.70;8.20;;;;;;;18.13;65.40;100427.38;5053974;28;20028;-73
2022/08/04 02:03:16;;;;;;;10.13;7.80;;;;;;;18.08;65.51;100422.47;5054506;28;20029;-74
2022/08/04 02:05:42;;;;;;;9.57;8.25;;;;;;;18.10;65.80;100417.69;5054345;28;20374;-73
2022/08/04 02:08:21;;;;;;;7.85;7.05;;;;;;;18.07;66.37;100421.69;5054121;28;20035;-74
2022/08/04 02:10:46;;;;;;;9.65;7.53;;;;;;;18.06;65.75;100413.53;5053925;28;20466;-74
2022/08/04 02:13:36;;;;;;;9.00;7.53;;;;;;;18.05;66.29;100417.75;5054991;28;20031;-73
2022/08/04 02:16:15;;;;;;;9.88;8.45;;;;;;;18.00;66.23;100419.38;5055305;28;20025;-74
2022/08/04 02:19:01;;;;;;;10.40;8.50;;;;;;;17.96;66.25;100416.00;5037138;28;20021;-74
2022/08/04 02:21:29;;;;;;;9.68;8.07;;;;;;;17.92;66.60;100418.44;5053707;28;20040;-74
2022/08/04 02:24:07;;;;;;;10.02;7.95;;;;;;;17.91;66.55;100424.75;5055171;28;20112;-74
2022/08/04 02:26:34;;;;;;;12.75;8.82;;;;;;;17.88;66.99;100423.72;5053729;28;20029;-74
2022/08/04 02:29:44;;;;;;;11.55;8.18;;;;;;;17.86;67.08;100419.81;5053594;28;20020;-74
2022/08/04 02:32:18;;;;;;;10.35;8.07;;;;;;;17.82;67.53;100411.44;5042149;28;20036;-73
2022/08/04 02:34:51;;;;;;;12.80;7.70;;;;;;;17.71;67.62;100400.75;5054086;28;20028;-74
2022/08/04 02:37:17;;;;;;;10.40;9.30;;;;;;;17.76;67.92;100402.81;5053700;28;20075;-73
2022/08/04 02:39:44;;;;;;;9.50;7.63;;;;;;;17.74;68.12;100407.56;5053290;28;20052;-74
2022/08/04 02:42:11;;;;;;;11.18;8.25;;;;;;;17.70;68.45;100396.31;5036714;28;20020;-74
2022/08/04 02:44:38;;;;;;;10.30;7.93;;;;;;;17.67;68.26;100406.06;5053727;28;20047;-74
2022/08/04 02:47:03;;;;;;;13.32;8.07;;;;;;;17.66;68.47;100406.59;5054395;28;20029;-73
2022/08/04 02:49:29;;;;;;;10.15;8.40;;;;;;;17.55;68.43;100381.47;5053488;28;20040;-74
2022/08/04 02:51:56;;;;;;;12.27;8.73;;;;;;;17.62;68.43;100400.34;5053480;28;20029;-73
2022/08/04 02:54:27;;;;;;;10.48;8.63;;;;;;;17.58;68.23;100399.84;5054449;28;20017;-75
2022/08/04 02:56:53;;;;;;;;;;;;;;;17.57;69.12;100404.06;5053907;28;20025;-74
2022/08/04 02:59:21;;;;;;;12.48;8.38;;;;;;;17.51;68.96;100403.31;5053006;28;20235;-74
2022/08/04 03:01:46;;;;;;;11.88;8.95;;;;;;;17.50;69.03;100399.66;5053118;28;20458;-75
2022/08/04 03:04:18;;;;;;;12.65;8.35;;;;;;;17.49;68.78;100406.75;5053275;28;20031;-73
2022/08/04 03:07:25;;;;;;;9.52;8.57;;;;;;;17.47;68.84;100406.50;5052929;28;20130;-74
2022/08/04 03:09:50;;;;;;;10.00;8.75;;;;;;;17.44;68.66;100412.56;5014685;28;20044;-73
2022/08/04 03:12:24;;;;;;;10.85;8.73;;;;;;;17.42;69.30;100411.00;5054117;28;20382;-73
2022/08/04 03:15:08;;;;;;;10.25;8.23;;;;;;;17.43;69.41;100408.88;5052993;28;20056;-73
2022/08/04 03:17:39;;;;;;;10.00;8.55;;;;;;;17.45;69.59;100412.03;5052642;28;20063;-74
2022/08/04 03:20:05;;;;;;;11.60;8.90;;;;;;;17.46;69.50;100409.94;5052640;28;20098;-74
2022/08/04 03:22:49;;;;;;;11.57;8.85;;;;;;;17.45;69.30;100414.94;5053853;28;20108;-74
2022/08/04 03:25:51;;;;;;;16.23;10.25;;;;;;;17.47;69.15;100411.50;5053994;28;20025;-73
2022/08/04 03:28:35;;;;;;;15.25;9.07;;;;;;;17.46;69.58;100412.81;5052405;28;20029;-74
2022/08/04 03:31:38;;;;;;;10.35;8.60;;;;;;;17.48;69.30;100408.09;5053562;28;20063;-73
2022/08/04 03:34:44;;;;;;;12.82;9.30;;;;;;;17.48;69.55;100410.97;5053723;28;20369;-74
2022/08/04 03:37:31;;;;;;;12.00;8.60;;;;;;;17.49;69.67;100417.53;5031365;28;20386;-73
2022/08/04 03:40:32;;;;;;;11.10;9.05;;;;;;;17.50;69.95;100419.09;5014186;28;20041;-75
2022/08/04 03:43:34;;;;;;;15.88;10.10;;;;;;;17.50;70.37;100424.88;5012715;28;20092;-74
2022/08/04 03:46:18;;;;;;;12.80;9.60;;;;;;;17.48;70.48;100418.84;5013769;28;20145;-73
2022/08/04 03:49:15;;;;;;;11.02;9.05;;;;;;;17.48;70.91;100419.66;5013814;28;20042;-73
2022/08/04 03:54:41;;;;;;;12.73;9.77;;;;;;;17.51;70.97;100423.56;5012807;28;20045;-74
2022/08/04 03:57:28;;;;;;;10.50;9.38;;;;;;;17.53;71.43;100430.38;5012452;28;20379;-74
2022/08/04 04:00:17;;;;;;;21.13;9.55;;;;;;;17.54;71.49;100416.69;5013747;28;20037;-74
2022/08/04 04:02:54;;;;;;;11.65;10.23;;;;;;;17.56;71.89;100423.50;5012634;28;20096;-75
2022/08/04 04:05:58;;;;;;;12.18;9.82;;;;;;;17.60;71.95;100424.00;5013825;28;20030;-73
2022/08/04 04:08:41;;;;;;;13.27;10.00;;;;;;;17.63;71.73;100416.38;5005431;28;20037;-73
2022/08/04 04:11:13;;;;;;;10.32;9.00;;;;;;;17.68;71.37;100421.31;5012244;28;20088;-73
2022/08/04 04:13:45;;;;;;;11.98;10.10;;;;;;;17.73;70.97;100418.34;5012264;28;20037;-76
2022/08/04 04:16:17;;;;;;;;;;;;;;;17.79;71.14;100415.41;5013711;28;20066;-74
2022/08/04 04:19:06;;;;;;;13.90;10.40;;;;;;;17.83;71.06;100410.13;5012107;28;19913;-75
2022/08/04 04:21:58;;;;;;;16.73;11.05;;;;;;;17.90;70.81;100415.28;5012001;28;20117;-75
2022/08/04 04:24:54;;;;;;;15.15;10.55;;;;;;;17.96;70.73;100424.69;4995844;28;20030;-73
2022/08/04 04:27:29;;;;;;;10.82;9.05;;;;;;;18.03;70.43;100423.31;4995570;28;20030;-74
2022/08/04 04:30:04;;;;;;;13.52;9.50;;;;;;;18.07;69.99;100415.13;5012153;28;20083;-73
2022/08/04 04:33:11;;;;;;;13.75;10.07;;;;;;;18.12;70.05;100420.84;5013283;28;20079;-74
2022/08/04 04:35:55;;;;;;;11.88;9.55;;;;;;;18.15;69.99;100424.75;5003560;28;20038;-74
2022/08/04 04:39:00;;;;;;;13.15;9.65;;;;;;;18.24;69.76;100415.69;5028396;28;20091;-74
2022/08/04 04:41:40;;;;;;;12.23;9.23;;;;;;;18.28;69.96;100427.72;4972013;28;20476;-74
2022/08/04 04:44:17;;;;;;;13.88;9.82;;;;;;;18.35;69.46;100423.47;5046181;28;20049;-74
2022/08/04 04:46:47;;;;;;;12.88;10.57;;;;;;;18.43;69.51;100422.31;5052910;28;20035;-74
2022/08/04 04:49:30;;;;;;;12.30;10.40;;;;;;;18.54;69.17;100430.88;5051877;28;20029;-74
2022/08/04 04:52:02;;;;;;;14.88;9.45;;;;;;;18.66;68.62;100431.50;5034873;28;20055;-74
2022/08/04 04:54:42;;;;;;;11.82;10.32;;;;;;;18.73;68.08;100427.19;5052981;28;20444;-74
2022/08/04 04:57:20;;;;;;;12.80;10.38;;;;;;;18.79;67.77;100428.69;5034822;28;20021;-74
2022/08/04 04:59:57;;;;;;;14.25;10.63;;;;;;;18.90;67.67;100439.34;5052643;28;20033;-74
2022/08/04 05:02:23;;;;;;;12.52;10.60;;;;;;;18.96;67.38;100434.25;5051607;28;20135;-74
2022/08/04 05:04:57;;;;;;;13.80;10.55;;;;;;;19.04;67.46;100435.97;5053238;28;20336;-73
2022/08/04 05:08:01;;;;;;;14.40;10.68;;;;;;;19.15;67.05;100435.03;5052673;28;20044;-75
2022/08/04 05:10:39;;;;;;;13.75;9.77;;;;;;;19.20;66.69;100431.28;5051404;28;20028;-74
2022/08/04 05:13:34;;;;;;;11.35;9.50;;;;;;;19.28;66.49;100440.88;5052867;28;20033;-74
2022/08/04 05:16:09;;;;;;;11.77;9.95;;;;;;;19.33;66.40;100439.22;5051112;28;20522;-75
2022/08/04 05:18:36;;;;;;;17.08;10.30;;;;;;;19.39;66.42;100440.72;5052367;28;20056;-74
2022/08/04 05:21:07;;;;;;;16.15;9.65;;;;;;;19.49;66.32;100435.28;5055239;28;20047;-74
2022/08/04 05:23:36;;;;;;;12.40;8.80;;;;;;;19.58;66.45;100431.97;5056032;28;20124;-75
2022/08/04 05:26:08;;;;;;;12.38;9.13;;;;;;;19.72;66.08;100432.78;5054863;28;20450;-74
2022/08/04 05:28:39;;;;;;;15.07;9.70;;;;;;;19.80;65.77;100439.50;5056014;28;20082;-73
2022/08/04 05:31:09;;;;;;;12.63;9.90;;;;;;;19.89;65.54;100433.25;5054681;28;20032;-74
2022/08/04 05:33:53;;;;;;;15.30;8.85;;;;;;;20.02;65.40;100436.19;5038407;28;20032;-73
2022/08/04 05:36:21;;;;;;;22.88;10.65;;;;;;;20.07;65.11;100423.72;5038087;28;20059;-74
2022/08/04 05:38:50;;;;;;;14.40;9.07;;;;;;;20.17;64.84;100435.66;5054403;28;20057;-73
2022/08/04 05:41:16;;;;;;;12.25;9.10;;;;;;;20.28;64.71;100429.63;5038170;28;20031;-74
2022/08/04 05:43:43;;;;;;;12.18;9.60;;;;;;;20.38;64.46;100433.66;5037896;28;20028;-74
2022/08/04 05:46:10;;;;;;;13.30;9.65;;;;;;;20.49;64.42;100435.53;5054598;28;20466;-74
2022/08/04 05:48:36;;;;;;;10.35;8.13;;;;;;;20.53;64.24;100424.38;5055651;28;20051;-74
2022/08/04 05:51:03;;;;;;;14.48;8.40;;;;;;;20.63;63.80;100431.28;5054545;28;20039;-73
2022/08/04 05:53:29;;;;;;;14.65;8.55;;;;;;;20.73;63.23;100439.00;5054631;28;20082;-74
2022/08/04 05:55:55;;;;;;;13.80;8.60;;;;;;;20.80;63.25;100428.81;5054243;28;20489;-74
2022/08/04 05:58:21;;;;;;;10.98;9.10;;;;;;;20.88;63.15;100438.41;5054504;28;20028;-75
2022/08/04 06:00:46;;;;;;;12.80;8.52;;;;;;;20.96;62.98;100442.19;5055771;28;20131;-73
2022/08/04 06:03:12;;;;;;;10.43;8.45;;;;;;;21.03;62.53;100434.91;5054410;28;20549;-74
2022/08/04 06:05:39;;;;;;;13.10;8.18;;;;;;;21.15;62.39;100444.91;5054023;28;20032;-73
2022/08/04 06:08:05;;;;;;;12.93;7.85;;;;;;;21.25;62.15;100443.09;5055383;28;20462;-75
2022/08/04 06:10:31;;;;;;;8.63;7.22;;;;;;;21.39;62.02;100438.78;5055276;28;20036;-74
2022/08/04 06:13:08;;;;;;;11.48;7.95;;;;;;;21.56;61.31;100447.91;5054147;28;20098;-74
2022/08/04 06:15:36;;;;;;;13.50;8.07;;;;;;;21.65;60.99;100441.59;5054015;28;20021;-73
2022/08/04 06:18:04;;;;;;;10.45;7.28;;;;;;;21.79;60.69;100451.00;5054138;28;20123;-74
2022/08/04 06:20:31;;;;;;;10.57;7.70;;;;;;;21.91;60.32;100443.56;5054231;28;20052;-73
2022/08/04 06:23:10;;;;;;;14.38;7.53;;;;;;;22.06;60.00;100457.44;5053955;28;20024;-74
2022/08/04 06:25:42;;;;;;;13.02;7.82;;;;;;;22.15;59.66;100445.28;5055134;28;20527;-73
2022/08/04 06:28:08;;;;;;;9.30;6.65;;;;;;;22.41;59.19;100455.97;5053935;28;20104;-73
2022/08/04 06:30:35;;;;;;;9.05;6.85;;;;;;;22.53;58.36;100458.00;5054863;28;20104;-75
2022/08/04 06:33:02;;;;;;;11.88;7.15;;;;;;;22.67;58.39;100457.88;5053400;28;20036;-75
2022/08/04 06:35:29;;;;;;;10.63;6.38;;;;;;;22.79;57.63;100456.19;5036967;28;20029;-74
2022/08/04 06:37:55;;;;;;;12.77;7.25;;;;;;;23.00;57.34;100459.03;5053275;28;20062;-74
2022/08/04 06:40:22;;;;;;;10.52;6.60;;;;;;;23.46;56.91;100460.69;5054834;28;20047;-76
2022/08/04 06:42:48;;;;;;;16.17;6.47;;;;;;;25.09;55.20;100451.41;5054640;28;20037;-75
2022/08/04 06:45:14;;;;;;;15.07;6.80;;;;;;;27.68;50.33;100459.25;5053483;28;20091;-75
2022/08/04 06:47:41;;;;;;;22.60;5.75;;;;;;;30.34;44.13;100454.50;5053285;28;20087;-74
2022/08/04 06:50:08;;;;;;;13.63;6.20;;;;;;;32.86;37.77;100454.81;5054823;28;20021;-75
2022/08/04 06:52:34;;;;;;;16.77;5.60;;;;;;;35.18;34.83;100463.31;5054970;28;20051;-75
2022/08/04 06:54:59;;;;;;;7.60;5.20;;;;;;;37.16;30.85;100477.88;5054524;28;20416;-74
2022/08/04 06:57:27;;;;;;;10.95;6.63;;;;;;;38.95;28.04;100481.22;5053463;28;20013;-75
2022/08/04 06:59:57;;;;;;;13.07;5.70;;;;;;;40.38;24.49;100492.66;5053422;28;20029;-76
2022/08/04 07:02:27;;;;;;;8.03;4.90;;;;;;;41.61;23.33;100492.28;5054599;28;20028;-75
2022/08/04 07:04:53;;;;;;;5.80;4.93;;;;;;;42.84;22.47;100495.03;5053097;28;20104;-76
2022/08/04 07:07:19;;;;;;;22.88;5.68;;;;;;;43.99;20.81;100499.25;5054405;28;20103;-74
2022/08/04 07:09:44;;;;;;;14.45;5.07;;;;;;;44.88;19.84;100496.63;5053139;28;20066;-75
2022/08/04 07:12:10;;;;;;;8.18;4.78;;;;;;;45.63;18.97;100514.00;5054140;28;20036;-75
2022/08/04 07:14:36;;;;;;;13.50;5.22;;;;;;;46.24;18.26;100498.53;5036215;28;20024;-77
2022/08/04 07:17:07;;;;;;;12.60;4.90;;;;;;;47.11;17.15;100499.59;5054158;28;20043;-75
2022/08/04 07:19:34;;;;;;;13.25;4.10;;;;;;;47.71;16.33;100504.91;5052774;28;20047;-76
2022/08/04 07:22:00;;;;;;;11.18;4.80;;;;;;;48.40;16.17;100510.81;5053795;28;20048;-74
2022/08/04 07:24:33;;;;;;;8.63;4.20;;;;;;;49.03;14.49;100519.59;5052753;28;20025;-75
2022/08/04 07:26:59;;;;;;;12.80;4.70;;;;;;;49.19;14.20;100524.84;5053864;28;20051;-76
2022/08/04 07:29:26;;;;;;;7.70;4.32;;;;;;;49.39;14.12;100519.34;5052446;28;20053;-77
2022/08/04 07:31:53;;;;;;;7.53;4.57;;;;;;;49.88;13.15;100512.09;5053699;28;20035;-77
2022/08/04 07:34:19;;;;;;;7.00;3.95;;;;;;;49.95;12.88;100519.63;5053900;28;20067;-77
2022/08/04 07:36:46;;;;;;;11.43;4.85;;;;;;;49.86;13.30;100521.25;5053910;28;20420;-76
2022/08/04 07:39:12;;;;;;;20.55;4.65;;;;;;;49.86;12.93;100518.94;5052143;28;20053;-76
2022/08/04 07:41:40;;;;;;;8.70;4.20;;;;;;;50.08;13.47;100512.63;5053277;28;20032;-76
2022/08/04 07:44:07;;;;;;;10.45;4.47;;;;;;;50.15;12.77;100517.16;5052450;28;20053;-77
2022/08/04 07:46:34;;;;;;;12.40;4.68;;;;;;;50.19;12.76;100510.25;5053247;28;20029;-76
2022/08/04 07:48:59;;;;;;;17.48;5.68;;;;;;;50.43;12.51;100509.97;5035405;28;20025;-77
2022/08/04 07:51:25;;;;;;;9.60;4.15;;;;;;;50.73;12.09;100505.75;5052185;28;20054;-76
2022/08/04 07:53:51;;;;;;;7.07;3.63;;;;;;;50.94;12.30;100506.97;5052256;28;20029;-76
2022/08/04 07:56:17;;;;;;;5.72;3.70;;;;;;;50.92;12.66;100510.03;5053586;28;20359;-76
2022/08/04 07:58:42;;;;;;;6.68;4.30;;;;;;;50.40;12.19;100507.72;5053423;28;20067;-76
2022/08/04 08:01:08;;;;;;;8.55;4.00;;;;;;;49.91;12.85;100508.25;5053214;28;20488;-77
2022/08/04 08:03:34;;;;;;;6.45;4.30;;;;;;;49.73;12.71;100500.06;5051989;28;20028;-76
2022/08/04 08:06:00;;;;;;;5.65;3.90;;;;;;;49.78;12.78;100498.50;5035472;28;20033;-76
2022/08/04 08:08:26;;;;;;;9.00;4.30;;;;;;;49.64;12.40;100501.69;5052313;28;20017;-76
2022/08/04 08:10:52;;;;;;;13.05;4.70;;;;;;;49.24;12.51;100486.81;5053375;28;20458;-77
2022/08/04 08:13:18;;;;;;;4.30;3.95;;;;;;;48.86;13.12;100493.94;5052310;28;20434;-77
2022/08/04 08:15:45;;;;;;;6.32;4.00;;;;;;;48.43;12.76;100494.13;5051940;28;20112;-76
2022/08/04 08:18:11;;;;;;;8.77;4.38;;;;;;;48.25;13.18;100494.19;5053441;28;20021;-77
2022/08/04 08:20:36;;;;;;;4.95;4.35;;;;;;;48.00;13.26;100493.50;5035201;28;20071;-77
2022/08/04 08:23:03;;;;;;;4.70;3.90;;;;;;;47.80;13.37;100495.81;5051839;28;20514;-76
2022/08/04 08:25:31;;;;;;;11.25;4.47;;;;;;;47.40;13.80;100481.44;5052936;28;20028;-76
2022/08/04 08:27:57;;;;;;;4.22;3.83;;;;;;;47.09;13.38;100492.81;5051854;28;20036;-77
2022/08/04 08:30:24;;;;;;;6.40;4.80;;;;;;;46.85;13.84;100478.34;5052875;28;20039;-76
2022/08/04 08:32:49;;;;;;;6.50;4.50;;;;;;;46.52;13.90;100476.72;5052004;28;20025;-77
2022/08/04 08:35:15;;;;;;;4.95;4.03;;;;;;;46.24;14.45;100472.09;5051771;28;20127;-77
2022/08/04 08:37:47;;;;;;;7.10;4.65;;;;;;;45.88;14.90;100472.63;5051685;28;20033;-77
2022/08/04 08:40:40;;;;;;;5.88;3.88;;;;;;;45.46;14.45;100484.41;5051765;28;20028;-77
2022/08/04 08:43:22;;;;;;;5.45;4.32;;;;;;;45.20;14.80;100464.53;5051937;28;20013;-76
2022/08/04 08:46:06;;;;;;;18.67;7.07;;;;;;;45.35;15.34;100468.47;5053101;28;20100;-76
2022/08/04 08:48:56;;;;;;;7.40;4.68;;;;;;;45.23;14.78;100474.38;5052951;28;20029;-76
2022/08/04 08:51:33;;;;;;;12.57;4.35;;;;;;;44.91;14.57;100459.00;5052803;28;20025;-76
2022/08/04 08:54:02;;;;;;;8.88;4.72;;;;;;;44.50;15.53;100455.50;5052147;28;20029;-76
2022/08/04 08:56:44;;;;;;;8.23;4.40;;;;;;;44.31;15.27;100462.81;5056899;28;20025;-77
2022/08/04 08:59:31;;;;;;;10.82;4.75;;;;;;;44.05;15.36;100453.38;5039056;28;20028;-77
2022/08/04 09:02:14;;;;;;;17.83;4.95;;;;;;;43.68;15.72;100461.13;5056747;28;20079;-76
2022/08/04 09:04:58;;;;;;;9.55;4.60;;;;;;;43.39;15.81;100453.91;5056791;28;20423;-75
2022/08/04 09:07:26;;;;;;;5.97;4.53;;;;;;;43.03;15.91;100457.03;5056505;28;20108;-76
2022/08/04 09:10:16;;;;;;;5.88;4.25;;;;;;;42.71;15.91;100457.19;5056311;28;20079;-75
2022/08/04 09:13:05;;;;;;;9.85;4.68;;;;;;;42.33;16.57;100447.38;5038528;28;20024;-75
2022/08/04 09:15:39;;;;;;;33.38;8.32;;;;;;;42.10;16.75;100440.13;5055751;28;20025;-76
2022/08/04 09:18:06;;;;;;;16.35;6.05;;;;;;;41.77;17.00;100448.38;5055493;28;20474;-76
2022/08/04 09:20:39;;;;;;;12.60;4.90;;;;;;;41.56;17.63;100439.63;5056649;28;20028;-76
2022/08/04 09:23:15;;;;;;;12.52;5.50;;;;;;;41.32;17.74;100440.53;5055284;28;20032;-75
2022/08/04 09:25:47;;;;;;;7.05;5.70;;;;;;;41.09;17.64;100437.69;5054891;28;20025;-75
2022/08/04 09:28:22;;;;;;;19.67;6.45;;;;;;;40.84;17.79;100440.03;5054993;28;20025;-77
2022/08/04 09:30:55;;;;;;;7.13;4.82;;;;;;;40.50;18.18;100433.84;5055929;28;20082;-76
2022/08/04 09:33:37;;;;;;;9.52;6.88;;;;;;;40.15;18.37;100431.28;5021997;28;20359;-77
2022/08/04 09:36:05;;;;;;;17.42;14.73;;;;;;;39.69;18.88;100434.38;5056361;28;20024;-74
2022/08/04 09:38:34;;;;;;;8.77;4.43;;;;;;;39.32;18.58;100429.41;5055520;28;20048;-77
2022/08/04 09:41:08;;;;;;;6.95;4.28;;;;;;;38.87;18.36;100423.38;5055845;28;20048;-76
2022/08/04 09:44:01;;;;;;;6.55;4.30;;;;;;;38.46;19.64;100424.13;5055925;28;20021;-76
2022/08/04 09:46:32;;;;;;;5.90;5.25;;;;;;;37.95;19.92;100416.25;5054867;28;20031;-77
2022/08/04 09:49:16;;;;;;;8.10;6.18;;;;;;;37.56;20.94;100428.88;5055584;28;20104;-77
2022/08/04 09:51:45;;;;;;;38.42;11.20;;;;;;;37.36;21.46;100427.28;5054834;28;20025;-76
2022/08/04 09:54:37;;;;;;;12.07;6.20;;;;;;;37.35;20.86;100429.50;5054562;28;20025;-75
2022/08/04 09:57:21;;;;;;;6.43;5.00;;;;;;;37.39;20.95;100428.88;5054466;28;20025;-74
2022/08/04 09:59:57;;;;;;;5.85;4.40;;;;;;;37.25;20.81;100432.03;5055412;28;20108;-75
2022/08/04 10:02:23;;;;;;;6.03;4.38;;;;;;;36.94;20.82;100424.00;5054525;28;20028;-76
2022/08/04 10:04:49;;;;;;;10.73;4.57;;;;;;;36.60;20.93;100411.34;5037145;28;20017;-76
2022/08/04 10:07:34;;;;;;;6.45;5.43;;;;;;;36.43;21.92;100421.00;5055321;28;20060;-75
2022/08/04 10:10:02;;;;;;;8.45;4.95;;;;;;;36.23;22.25;100408.19;5054098;28;20025;-76
2022/08/04 10:12:40;;;;;;;14.38;5.47;;;;;;;36.11;22.16;100419.50;5055226;28;20028;-76
2022/08/04 10:15:09;;;;;;;6.30;5.05;;;;;;;35.98;21.95;100418.16;5054118;28;20378;-75
2022/08/04 10:17:55;;;;;;;4.68;4.15;;;;;;;35.75;21.86;100419.31;5055163;28;20036;-76
2022/08/04 10:20:23;;;;;;;5.05;4.18;;;;;;;35.49;22.24;100412.88;5054079;28;20031;-77
2022/08/04 10:23:17;;;;;;;12.25;5.15;;;;;;;35.35;21.43;100411.41;5055050;28;20437;-76
2022/08/04 10:26:11;;;;;;;13.55;4.88;;;;;;;35.34;23.08;100398.75;5017687;28;20064;-75
2022/08/04 10:28:45;;;;;;;11.70;4.70;;;;;;;35.34;22.80;100400.94;5053655;28;20016;-76
2022/08/04 10:31:16;;;;;;;9.20;4.63;;;;;;;35.34;23.22;100398.75;5053500;28;20025;-75
2022/08/04 10:33:49;;;;;;;5.78;3.90;;;;;;;35.31;22.63;100397.09;5053548;28;20032;-75
2022/08/04 10:36:17;;;;;;;5.05;3.85;;;;;;;35.26;22.87;100409.44;5053458;28;20032;-75
2022/08/04 10:38:51;;;;;;;9.98;4.30;;;;;;;35.07;22.56;100404.78;5053423;28;20151;-76
2022/08/04 10:41:19;;;;;;;8.90;4.28;;;;;;;34.87;23.46;100394.84;5054794;28;20090;-74
2022/08/04 10:43:49;;;;;;;9.80;4.03;;;;;;;34.80;23.47;100399.72;5054547;28;20021;-75
2022/08/04 10:46:29;;;;;;;7.63;4.68;;;;;;;34.69;22.96;100386.56;5053394;28;20021;-76
2022/08/04 10:49:04;;;;;;;12.45;4.35;;;;;;;34.61;23.79;100392.06;5053245;28;20037;-75
2022/08/04 10:51:35;;;;;;;8.88;4.10;;;;;;;34.49;23.77;100384.69;5053465;28;20032;-75
2022/08/04 10:54:05;;;;;;;7.22;4.38;;;;;;;34.39;24.44;100373.06;5054477;28;20029;-75
2022/08/04 10:56:43;;;;;;;7.43;4.10;;;;;;;34.42;24.58;100383.59;5053370;28;20013;-75
2022/08/04 10:59:16;;;;;;;14.63;6.55;;;;;;;34.26;24.09;100377.59;5053455;28;20027;-75
2022/08/04 11:01:44;;;;;;;4.60;3.90;;;;;;;34.10;24.67;100382.63;5053293;28;20035;-76
2022/08/04 11:04:30;;;;;;;5.40;4.93;;;;;;;33.89;24.60;100371.09;5053598;28;20124;-74
2022/08/04 11:06:57;;;;;;;5.40;4.32;;;;;;;33.62;25.58;100374.81;5053214;28;20025;-75
2022/08/04 11:09:23;;;;;;;11.80;5.47;;;;;;;33.30;24.89;100367.81;5036437;28;20020;-75
2022/08/04 11:12:22;;;;;;;12.77;5.25;;;;;;;33.18;25.39;100370.06;5053073;28;20481;-76
2022/08/04 11:14:47;;;;;;;6.43;4.10;;;;;;;33.05;25.76;100364.84;5026890;28;20040;-75
2022/08/04 11:17:24;;;;;;;5.40;4.03;;;;;;;32.92;25.22;100362.63;5053587;28;20043;-74
2022/08/04 11:20:06;;;;;;;8.98;4.72;;;;;;;32.83;25.85;100369.50;5052940;28;20275;-74
2022/08/04 11:22:33;;;;;;;4.35;3.58;;;;;;;32.69;25.92;100366.44;5052736;28;20146;-73
2022/08/04 11:25:05;;;;;;;4.93;3.75;;;;;;;32.57;25.85;100368.66;5052688;28;20086;-75
2022/08/04 11:27:33;;;;;;;14.50;5.55;;;;;;;32.51;26.55;100377.16;5053609;28;20025;-74
2022/08/04 11:30:09;;;;;;;4.35;3.95;;;;;;;32.43;26.21;100364.84;5053919;28;20075;-76
2022/08/04 11:32:56;;;;;;;5.28;4.78;;;;;;;32.36;26.69;100360.75;5052746;28;20029;-77
2022/08/04 11:35:51;;;;;;;8.60;4.32;;;;;;;32.40;26.29;100363.94;5052655;28;20132;-75
2022/08/04 11:38:19;;;;;;;9.63;6.20;;;;;;;32.35;27.16;100364.34;5052372;28;20043;-75
2022/08/04 11:40:49;;;;;;;24.40;6.28;;;;;;;32.30;26.69;100362.56;5053681;28;20051;-75
2022/08/04 11:43:30;;;;;;;4.72;3.80;;;;;;;32.22;26.64;100357.72;5035848;28;20043;-75
2022/08/04 11:46:01;;;;;;;23.75;7.22;;;;;;;32.19;26.09;100353.06;5053451;28;20492;-76
2022/08/04 11:48:40;;;;;;;5.28;3.92;;;;;;;32.02;26.49;100353.47;5052805;28;20104;-74
2022/08/04 11:51:08;;;;;;;11.55;6.45;;;;;;;32.08;26.72;100370.81;5053795;28;20021;-74
2022/08/04 11:53:34;;;;;;;4.70;3.95;;;;;;;32.06;26.60;100356.69;5052464;28;20165;-74